sensor_id;sensor_type;location;lat;lon;timestamp;pressure;altitude;pressure_sealevel;temperature;humidity
68594;BME280;55563;52.416;13.548;2023-04-19T00:00:57;102288.22;;;5.45;100.00
68594;BME280;55563;52.416;13.548;2023-04-19T00:02:58;102278.25;;;5.49;100.00
68594;BME280;55563;52.416;13.548;2023-04-19T00:05:00;102278.25;;;5.49;100.00
68594;BME280;55563;52.416;13.548;2023-04-19T00:07:01;102280.03;;;5.48;100.00
68594;BME280;55563;52.416;13.548;2023-04-19T00:09:02;102278.88;;;5.51;100.00
68594;BME280;55563;52.416;13.548;2023-04-19T00:11:03;102279.03;;;5.49;100.00
68594;BME280;55563;52.416;13.548;2023-04-19T00:13:05;102277.25;;;5.50;100.00
68594;BME280;55563;52.416;13.548;2023-04-19T00:15:07;102280.28;;;5.53;100.00
68594;BME280;55563;52.416;13.548;2023-04-19T00:17:10;102266.81;;;5.50;100.00
68594;BME280;55563;52.416;13.548;2023-04-19T00:19:11;102275.47;;;5.50;100.00
68594;BME280;55563;52.416;13.548;2023-04-19T00:21:12;102271.88;;;5.51;100.00
68594;BME280;55563;52.416;13.548;2023-04-19T00:23:13;102273.28;;;5.54;100.00
68594;BME280;55563;52.416;13.548;2023-04-19T00:25:13;102264.81;;;5.52;100.00
68594;BME280;55563;52.416;13.548;2023-04-19T00:27:14;102273.44;;;5.52;100.00
68594;BME280;55563;52.416;13.548;2023-04-19T00:29:15;102274.25;;;5.53;100.00
68594;BME280;55563;52.416;13.548;2023-04-19T00:31:16;102266.44;;;5.53;100.00
68594;BME280;55563;52.416;13.548;2023-04-19T00:33:17;102265.84;;;5.51;100.00
68594;BME280;55563;52.416;13.548;2023-04-19T00:35:18;102265.19;;;5.49;100.00
68594;BME280;55563;52.416;13.548;2023-04-19T00:37:19;102265.84;;;5.51;100.00
68594;BME280;55563;52.416;13.548;2023-04-19T00:39:20;102271.06;;;5.51;100.00
68594;BME280;55563;52.416;13.548;2023-04-19T00:41:21;102273.44;;;5.52;100.00
68594;BME280;55563;52.416;13.548;2023-04-19T00:43:22;102268.78;;;5.48;100.00
68594;BME280;55563;52.416;13.548;2023-04-19T00:45:23;102273.13;;;5.41;100.00
68594;BME280;55563;52.416;13.548;2023-04-19T00:47:25;102266.31;;;5.40;100.00
68594;BME280;55563;52.416;13.548;2023-04-19T00:49:27;102259.66;;;5.37;100.00
68594;BME280;55563;52.416;13.548;2023-04-19T00:51:29;102260.28;;;5.39;100.00
68594;BME280;55563;52.416;13.548;2023-04-19T00:53:30;102271.69;;;5.38;100.00
68594;BME280;55563;52.416;13.548;2023-04-19T00:55:31;102262.88;;;5.39;100.00
68594;BME280;55563;52.416;13.548;2023-04-19T00:57:32;102263.69;;;5.40;100.00
68594;BME280;55563;52.416;13.548;2023-04-19T00:59:34;102274.03;;;5.33;100.00
68594;BME280;55563;52.416;13.548;2023-04-19T01:01:37;102271.19;;;5.28;100.00
68594;BME280;55563;52.416;13.548;2023-04-19T01:03:38;102279.38;;;5.25;100.00
68594;BME280;55563;52.416;13.548;2023-04-19T01:05:39;102274.34;;;5.23;100.00
68594;BME280;55563;52.416;13.548;2023-04-19T01:07:41;102280.56;;;5.22;100.00
68594;BME280;55563;52.416;13.548;2023-04-19T01:09:43;102275.88;;;5.18;100.00
68594;BME280;55563;52.416;13.548;2023-04-19T01:11:44;102273.50;;;5.23;100.00
68594;BME280;55563;52.416;13.548;2023-04-19T01:13:45;102273.09;;;5.19;100.00
68594;BME280;55563;52.416;13.548;2023-04-19T01:15:46;102268.97;;;5.10;100.00
68594;BME280;55563;52.416;13.548;2023-04-19T01:17:47;102275.97;;;5.10;100.00
68594;BME280;55563;52.416;13.548;2023-04-19T01:19:47;102278.13;;;5.06;100.00
68594;BME280;55563;52.416;13.548;2023-04-19T01:21:48;102273.84;;;4.99;100.00
68594;BME280;55563;52.416;13.548;2023-04-19T01:23:49;102265.94;;;4.92;100.00
68594;BME280;55563;52.416;13.548;2023-04-19T01:25:50;102277.06;;;4.86;100.00
68594;BME280;55563;52.416;13.548;2023-04-19T01:27:51;102272.13;;;4.76;100.00
68594;BME280;55563;52.416;13.548;2023-04-19T01:29:51;102280.09;;;4.75;100.00
68594;BME280;55563;52.416;13.548;2023-04-19T01:31:52;102273.19;;;4.67;100.00
68594;BME280;55563;52.416;13.548;2023-04-19T01:33:53;102269.19;;;4.65;100.00
68594;BME280;55563;52.416;13.548;2023-04-19T01:35:53;102274.66;;;4.55;100.00
68594;BME280;55563;52.416;13.548;2023-04-19T01:37:54;102275.34;;;4.49;100.00
68594;BME280;55563;52.416;13.548;2023-04-19T01:39:55;102265.63;;;4.43;100.00
68594;BME280;55563;52.416;13.548;2023-04-19T01:41:56;102271.53;;;4.37;100.00
68594;BME280;55563;52.416;13.548;2023-04-19T01:43:57;102265.88;;;4.33;100.00
68594;BME280;55563;52.416;13.548;2023-04-19T01:45:57;102254.50;;;4.34;100.00
68594;BME280;55563;52.416;13.548;2023-04-19T01:47:59;102253.78;;;4.26;100.00
68594;BME280;55563;52.416;13.548;2023-04-19T01:50:02;102258.41;;;4.16;100.00
68594;BME280;55563;52.416;13.548;2023-04-19T01:52:03;102250.06;;;4.20;100.00
68594;BME280;55563;52.416;13.548;2023-04-19T01:54:04;102254.34;;;4.13;100.00
68594;BME280;55563;52.416;13.548;2023-04-19T01:56:05;102256.63;;;4.16;100.00
68594;BME280;55563;52.416;13.548;2023-04-19T01:58:05;102248.63;;;4.18;100.00
68594;BME280;55563;52.416;13.548;2023-04-19T02:00:07;102247.34;;;4.14;100.00
68594;BME280;55563;52.416;13.548;2023-04-19T02:02:27;102248.50;;;3.97;100.00
68594;BME280;55563;52.416;13.548;2023-04-19T02:04:28;102254.50;;;3.97;100.00
68594;BME280;55563;52.416;13.548;2023-04-19T02:06:29;102254.38;;;3.90;100.00
68594;BME280;55563;52.416;13.548;2023-04-19T02:08:31;102245.59;;;3.91;100.00
68594;BME280;55563;52.416;13.548;2023-04-19T02:10:31;102250.34;;;3.88;100.00
68594;BME280;55563;52.416;13.548;2023-04-19T02:12:33;102254.66;;;3.95;100.00
68594;BME280;55563;52.416;13.548;2023-04-19T02:14:34;102250.34;;;3.88;100.00
68594;BME280;55563;52.416;13.548;2023-04-19T02:16:35;102244.88;;;3.83;100.00
68594;BME280;55563;52.416;13.548;2023-04-19T02:18:36;102254.16;;;3.77;100.00
68594;BME280;55563;52.416;13.548;2023-04-19T02:20:39;102243.13;;;3.75;100.00
68594;BME280;55563;52.416;13.548;2023-04-19T02:22:39;102249.47;;;3.73;100.00
68594;BME280;55563;52.416;13.548;2023-04-19T02:24:40;102248.44;;;3.59;100.00
68594;BME280;55563;52.416;13.548;2023-04-19T02:26:41;102250.53;;;3.64;100.00
68594;BME280;55563;52.416;13.548;2023-04-19T02:28:42;102244.16;;;3.66;100.00
68594;BME280;55563;52.416;13.548;2023-04-19T02:30:42;102242.38;;;3.67;100.00
68594;BME280;55563;52.416;13.548;2023-04-19T02:32:43;102233.00;;;3.58;100.00
68594;BME280;55563;52.416;13.548;2023-04-19T02:34:45;102234.94;;;3.64;100.00
68594;BME280;55563;52.416;13.548;2023-04-19T02:36:46;102240.34;;;3.54;100.00
68594;BME280;55563;52.416;13.548;2023-04-19T02:38:47;102236.41;;;3.58;100.00
68594;BME280;55563;52.416;13.548;2023-04-19T02:40:47;102235.31;;;3.53;100.00
68594;BME280;55563;52.416;13.548;2023-04-19T02:42:48;102229.59;;;3.57;100.00
68594;BME280;55563;52.416;13.548;2023-04-19T02:44:49;102242.97;;;3.46;100.00
68594;BME280;55563;52.416;13.548;2023-04-19T02:46:51;102236.19;;;3.45;100.00
68594;BME280;55563;52.416;13.548;2023-04-19T02:48:52;102232.19;;;3.34;100.00
68594;BME280;55563;52.416;13.548;2023-04-19T02:50:53;102233.91;;;3.42;100.00
68594;BME280;55563;52.416;13.548;2023-04-19T02:52:54;102227.97;;;3.33;100.00
68594;BME280;55563;52.416;13.548;2023-04-19T02:54:57;102228.63;;;3.27;100.00
68594;BME280;55563;52.416;13.548;2023-04-19T02:56:58;102220.16;;;3.33;100.00
68594;BME280;55563;52.416;13.548;2023-04-19T02:59:00;102222.97;;;3.24;100.00
68594;BME280;55563;52.416;13.548;2023-04-19T03:01:02;102217.31;;;3.20;100.00
68594;BME280;55563;52.416;13.548;2023-04-19T03:03:03;102220.28;;;3.09;100.00
68594;BME280;55563;52.416;13.548;2023-04-19T03:05:05;102224.16;;;3.13;100.00
68594;BME280;55563;52.416;13.548;2023-04-19T03:07:08;102218.34;;;3.11;100.00
68594;BME280;55563;52.416;13.548;2023-04-19T03:09:11;102224.84;;;3.07;100.00
68594;BME280;55563;52.416;13.548;2023-04-19T03:11:13;102216.38;;;3.13;100.00
68594;BME280;55563;52.416;13.548;2023-04-19T03:13:14;102216.78;;;3.02;100.00
68594;BME280;55563;52.416;13.548;2023-04-19T03:15:16;102219.75;;;2.91;100.00
68594;BME280;55563;52.416;13.548;2023-04-19T03:17:17;102216.97;;;2.92;100.00
68594;BME280;55563;52.416;13.548;2023-04-19T03:19:19;102210.13;;;2.99;100.00
68594;BME280;55563;52.416;13.548;2023-04-19T03:21:24;102210.66;;;2.87;100.00
68594;BME280;55563;52.416;13.548;2023-04-19T03:23:28;102218.78;;;2.84;100.00
68594;BME280;55563;52.416;13.548;2023-04-19T03:25:31;102212.00;;;2.75;100.00
68594;BME280;55563;52.416;13.548;2023-04-19T03:27:46;102214.75;;;2.81;100.00
68594;BME280;55563;52.416;13.548;2023-04-19T03:29:49;102206.81;;;2.75;100.00
68594;BME280;55563;52.416;13.548;2023-04-19T03:31:50;102198.69;;;2.78;100.00
68594;BME280;55563;52.416;13.548;2023-04-19T03:33:51;102195.59;;;2.74;100.00
68594;BME280;55563;52.416;13.548;2023-04-19T03:35:55;102200.69;;;2.68;100.00
68594;BME280;55563;52.416;13.548;2023-04-19T03:37:56;102200.53;;;2.61;100.00
68594;BME280;55563;52.416;13.548;2023-04-19T03:39:57;102190.00;;;2.54;100.00
68594;BME280;55563;52.416;13.548;2023-04-19T03:42:04;102187.28;;;2.48;100.00
68594;BME280;55563;52.416;13.548;2023-04-19T03:44:25;102186.63;;;2.54;100.00
68594;BME280;55563;52.416;13.548;2023-04-19T03:46:26;102185.00;;;2.53;100.00
68594;BME280;55563;52.416;13.548;2023-04-19T03:48:31;102186.31;;;2.49;100.00
68594;BME280;55563;52.416;13.548;2023-04-19T03:50:32;102181.63;;;2.44;100.00
68594;BME280;55563;52.416;13.548;2023-04-19T03:52:33;102194.91;;;2.41;100.00
68594;BME280;55563;52.416;13.548;2023-04-19T03:54:35;102187.94;;;2.42;100.00
68594;BME280;55563;52.416;13.548;2023-04-19T03:56:38;102178.22;;;2.44;100.00
68594;BME280;55563;52.416;13.548;2023-04-19T03:58:39;102182.91;;;2.40;100.00
68594;BME280;55563;52.416;13.548;2023-04-19T04:00:41;102179.66;;;2.46;100.00
68594;BME280;55563;52.416;13.548;2023-04-19T04:02:43;102185.31;;;2.50;100.00
68594;BME280;55563;52.416;13.548;2023-04-19T04:04:52;102179.34;;;2.49;100.00
68594;BME280;55563;52.416;13.548;2023-04-19T04:06:54;102180.31;;;2.48;100.00
68594;BME280;55563;52.416;13.548;2023-04-19T04:08:55;102180.13;;;2.50;100.00
68594;BME280;55563;52.416;13.548;2023-04-19T04:10:56;102174.44;;;2.54;100.00
68594;BME280;55563;52.416;13.548;2023-04-19T04:12:57;102181.91;;;2.57;100.00
68594;BME280;55563;52.416;13.548;2023-04-19T04:15:04;102179.63;;;2.54;100.00
68594;BME280;55563;52.416;13.548;2023-04-19T04:17:07;102187.91;;;2.58;100.00
68594;BME280;55563;52.416;13.548;2023-04-19T04:19:09;102176.03;;;2.63;100.00
68594;BME280;55563;52.416;13.548;2023-04-19T04:21:14;102176.50;;;2.67;100.00
68594;BME280;55563;52.416;13.548;2023-04-19T04:23:17;102176.97;;;2.71;100.00
68594;BME280;55563;52.416;13.548;2023-04-19T04:25:22;102174.72;;;2.68;100.00
68594;BME280;55563;52.416;13.548;2023-04-19T04:27:23;102175.84;;;2.73;100.00
68594;BME280;55563;52.416;13.548;2023-04-19T04:29:27;102172.44;;;2.73;100.00
68594;BME280;55563;52.416;13.548;2023-04-19T04:31:31;102164.31;;;2.76;100.00
68594;BME280;55563;52.416;13.548;2023-04-19T04:33:31;102171.47;;;3.04;100.00
68594;BME280;55563;52.416;13.548;2023-04-19T04:35:33;102165.06;;;3.83;100.00
68594;BME280;55563;52.416;13.548;2023-04-19T04:37:41;102162.75;;;3.66;100.00
68594;BME280;55563;52.416;13.548;2023-04-19T04:39:42;102169.88;;;3.49;100.00
68594;BME280;55563;52.416;13.548;2023-04-19T04:41:44;102167.75;;;3.30;100.00
68594;BME280;55563;52.416;13.548;2023-04-19T04:43:45;102168.78;;;3.21;100.00
68594;BME280;55563;52.416;13.548;2023-04-19T04:45:52;102163.28;;;3.16;100.00
68594;BME280;55563;52.416;13.548;2023-04-19T04:47:55;102159.47;;;3.26;100.00
68594;BME280;55563;52.416;13.548;2023-04-19T04:49:56;102162.19;;;3.56;100.00
68594;BME280;55563;52.416;13.548;2023-04-19T04:51:57;102154.75;;;4.05;100.00
68594;BME280;55563;52.416;13.548;2023-04-19T04:53:58;102157.59;;;5.19;100.00
68594;BME280;55563;52.416;13.548;2023-04-19T04:55:59;102152.84;;;6.21;100.00
68594;BME280;55563;52.416;13.548;2023-04-19T04:58:00;102139.19;;;4.84;100.00
68594;BME280;55563;52.416;13.548;2023-04-19T05:00:16;102143.31;;;5.15;100.00
68594;BME280;55563;52.416;13.548;2023-04-19T05:02:37;102134.22;;;4.10;100.00
68594;BME280;55563;52.416;13.548;2023-04-19T05:04:38;102141.41;;;3.93;100.00
68594;BME280;55563;52.416;13.548;2023-04-19T05:06:38;102138.25;;;3.98;100.00
68594;BME280;55563;52.416;13.548;2023-04-19T05:08:43;102133.41;;;3.94;100.00
68594;BME280;55563;52.416;13.548;2023-04-19T05:10:53;102130.66;;;4.11;100.00
68594;BME280;55563;52.416;13.548;2023-04-19T05:13:00;102130.66;;;4.11;100.00
68594;BME280;55563;52.416;13.548;2023-04-19T05:15:02;102132.59;;;4.09;100.00
68594;BME280;55563;52.416;13.548;2023-04-19T05:17:05;102135.84;;;4.40;100.00
68594;BME280;55563;52.416;13.548;2023-04-19T05:19:05;102135.03;;;4.39;100.00
68594;BME280;55563;52.416;13.548;2023-04-19T05:21:12;102134.41;;;4.23;100.00
68594;BME280;55563;52.416;13.548;2023-04-19T05:23:14;102124.38;;;4.34;100.00
68594;BME280;55563;52.416;13.548;2023-04-19T05:25:16;102125.66;;;7.04;100.00
68594;BME280;55563;52.416;13.548;2023-04-19T05:27:17;102131.53;;;9.31;100.00
68594;BME280;55563;52.416;13.548;2023-04-19T05:29:18;102127.44;;;10.10;100.00
68594;BME280;55563;52.416;13.548;2023-04-19T05:31:24;102126.00;;;11.86;100.00
68594;BME280;55563;52.416;13.548;2023-04-19T05:33:43;102120.03;;;9.82;100.00
68594;BME280;55563;52.416;13.548;2023-04-19T05:35:43;102113.00;;;11.26;100.00
68594;BME280;55563;52.416;13.548;2023-04-19T05:37:45;102117.88;;;11.11;100.00
68594;BME280;55563;52.416;13.548;2023-04-19T05:39:46;102120.13;;;11.96;96.96
68594;BME280;55563;52.416;13.548;2023-04-19T05:41:47;102107.50;;;12.89;92.51
68594;BME280;55563;52.416;13.548;2023-04-19T05:43:48;102111.47;;;11.19;100.00
68594;BME280;55563;52.416;13.548;2023-04-19T05:45:49;102105.91;;;10.85;100.00
68594;BME280;55563;52.416;13.548;2023-04-19T05:47:50;102113.91;;;12.65;95.35
68594;BME280;55563;52.416;13.548;2023-04-19T05:50:10;102109.38;;;11.86;95.83
68594;BME280;55563;52.416;13.548;2023-04-19T05:52:18;102114.03;;;13.48;88.26
68594;BME280;55563;52.416;13.548;2023-04-19T05:54:23;102113.50;;;11.93;93.00
68594;BME280;55563;52.416;13.548;2023-04-19T05:56:24;102117.13;;;12.15;95.57
68594;BME280;55563;52.416;13.548;2023-04-19T05:58:24;102108.66;;;12.13;93.44
68594;BME280;55563;52.416;13.548;2023-04-19T06:00:25;102106.59;;;12.84;88.56
68594;BME280;55563;52.416;13.548;2023-04-19T06:02:35;102100.13;;;12.91;88.00
68594;BME280;55563;52.416;13.548;2023-04-19T06:04:36;102107.94;;;11.25;94.45
68594;BME280;55563;52.416;13.548;2023-04-19T06:06:36;102099.47;;;12.84;90.69
68594;BME280;55563;52.416;13.548;2023-04-19T06:08:37;102094.53;;;13.33;81.28
68594;BME280;55563;52.416;13.548;2023-04-19T06:10:38;102100.88;;;12.07;87.14
68594;BME280;55563;52.416;13.548;2023-04-19T06:12:38;102092.28;;;12.96;90.06
68594;BME280;55563;52.416;13.548;2023-04-19T06:14:40;102100.34;;;12.33;92.87
68594;BME280;55563;52.416;13.548;2023-04-19T06:16:41;102089.59;;;12.35;89.56
68594;BME280;55563;52.416;13.548;2023-04-19T06:18:41;102086.25;;;11.88;89.30
68594;BME280;55563;52.416;13.548;2023-04-19T06:20:42;102092.44;;;13.90;80.00
68594;BME280;55563;52.416;13.548;2023-04-19T06:22:44;102086.56;;;12.03;90.01
68594;BME280;55563;52.416;13.548;2023-04-19T06:24:45;102084.78;;;13.05;83.92
68594;BME280;55563;52.416;13.548;2023-04-19T06:26:46;102088.25;;;13.56;79.30
68594;BME280;55563;52.416;13.548;2023-04-19T06:28:49;102090.03;;;13.50;76.82
68594;BME280;55563;52.416;13.548;2023-04-19T06:30:49;102088.03;;;13.57;84.75
68594;BME280;55563;52.416;13.548;2023-04-19T06:32:50;102083.38;;;12.41;80.55
68594;BME280;55563;52.416;13.548;2023-04-19T06:34:51;102078.72;;;12.31;82.27
68594;BME280;55563;52.416;13.548;2023-04-19T06:36:52;102077.41;;;12.90;79.22
68594;BME280;55563;52.416;13.548;2023-04-19T06:38:53;102078.06;;;13.64;77.44
68594;BME280;55563;52.416;13.548;2023-04-19T06:40:54;102081.78;;;11.76;82.98
68594;BME280;55563;52.416;13.548;2023-04-19T06:42:54;102087.31;;;13.45;73.71
68594;BME280;55563;52.416;13.548;2023-04-19T06:44:56;102079.03;;;13.96;72.03
68594;BME280;55563;52.416;13.548;2023-04-19T06:46:57;102078.47;;;15.55;66.85
68594;BME280;55563;52.416;13.548;2023-04-19T06:48:58;102078.50;;;13.94;69.90
68594;BME280;55563;52.416;13.548;2023-04-19T06:50:58;102070.22;;;14.56;64.52
68594;BME280;55563;52.416;13.548;2023-04-19T06:52:59;102080.22;;;14.27;70.22
68594;BME280;55563;52.416;13.548;2023-04-19T06:55:00;102072.69;;;15.26;66.87
68594;BME280;55563;52.416;13.548;2023-04-19T06:57:00;102066.94;;;12.10;73.57
68594;BME280;55563;52.416;13.548;2023-04-19T06:59:02;102068.81;;;12.95;65.09
68594;BME280;55563;52.416;13.548;2023-04-19T07:01:03;102065.34;;;15.34;65.13
68594;BME280;55563;52.416;13.548;2023-04-19T07:03:04;102055.22;;;13.96;72.61
68594;BME280;55563;52.416;13.548;2023-04-19T07:05:06;102054.19;;;14.95;62.21
68594;BME280;55563;52.416;13.548;2023-04-19T07:07:07;102049.22;;;14.23;66.54
68594;BME280;55563;52.416;13.548;2023-04-19T07:09:08;102047.25;;;15.62;57.80
68594;BME280;55563;52.416;13.548;2023-04-19T07:11:09;102039.94;;;15.01;60.14
68594;BME280;55563;52.416;13.548;2023-04-19T07:13:10;102045.47;;;14.99;61.35
68594;BME280;55563;52.416;13.548;2023-04-19T07:15:11;102038.09;;;15.90;56.32
68594;BME280;55563;52.416;13.548;2023-04-19T07:17:12;102041.38;;;14.81;59.26
68594;BME280;55563;52.416;13.548;2023-04-19T07:19:13;102041.22;;;14.98;59.67
68594;BME280;55563;52.416;13.548;2023-04-19T07:21:14;102038.19;;;14.53;59.29
68594;BME280;55563;52.416;13.548;2023-04-19T07:23:15;102042.47;;;14.59;57.00
68594;BME280;55563;52.416;13.548;2023-04-19T07:25:15;102030.06;;;15.28;58.18
68594;BME280;55563;52.416;13.548;2023-04-19T07:27:16;102034.28;;;14.92;56.16
68594;BME280;55563;52.416;13.548;2023-04-19T07:29:18;102030.78;;;13.84;60.45
68594;BME280;55563;52.416;13.548;2023-04-19T07:31:18;102035.75;;;13.81;60.81
68594;BME280;55563;52.416;13.548;2023-04-19T07:33:19;102039.94;;;13.98;60.57
68594;BME280;55563;52.416;13.548;2023-04-19T07:35:20;102022.91;;;14.60;59.90
68594;BME280;55563;52.416;13.548;2023-04-19T07:37:21;102027.00;;;14.24;59.56
68594;BME280;55563;52.416;13.548;2023-04-19T07:39:22;102036.19;;;14.65;58.84
68594;BME280;55563;52.416;13.548;2023-04-19T07:41:23;102026.03;;;16.30;53.70
68594;BME280;55563;52.416;13.548;2023-04-19T07:43:23;102022.09;;;11.94;64.11
68594;BME280;55563;52.416;13.548;2023-04-19T07:45:24;102013.84;;;11.90;69.69
68594;BME280;55563;52.416;13.548;2023-04-19T07:47:25;102012.34;;;10.89;74.96
68594;BME280;55563;52.416;13.548;2023-04-19T07:49:25;102015.72;;;10.07;82.99
68594;BME280;55563;52.416;13.548;2023-04-19T07:51:26;102022.44;;;10.92;82.04
68594;BME280;55563;52.416;13.548;2023-04-19T07:53:27;102013.97;;;10.90;78.51
68594;BME280;55563;52.416;13.548;2023-04-19T07:55:28;102011.88;;;10.69;85.19
68594;BME280;55563;52.416;13.548;2023-04-19T07:57:29;102008.84;;;10.54;82.25
68594;BME280;55563;52.416;13.548;2023-04-19T07:59:29;102007.63;;;10.68;89.56
68594;BME280;55563;52.416;13.548;2023-04-19T08:01:32;102001.63;;;10.20;86.58
68594;BME280;55563;52.416;13.548;2023-04-19T08:03:33;101995.03;;;10.70;86.02
68594;BME280;55563;52.416;13.548;2023-04-19T08:05:34;101989.31;;;10.20;92.75
68594;BME280;55563;52.416;13.548;2023-04-19T08:07:35;101996.00;;;10.99;93.24
68594;BME280;55563;52.416;13.548;2023-04-19T08:09:36;101994.44;;;10.57;86.40
68594;BME280;55563;52.416;13.548;2023-04-19T08:11:37;101993.41;;;11.34;82.39
68594;BME280;55563;52.416;13.548;2023-04-19T08:13:37;101994.78;;;10.48;90.66
68594;BME280;55563;52.416;13.548;2023-04-19T08:15:38;101978.34;;;10.65;84.52
68594;BME280;55563;52.416;13.548;2023-04-19T08:17:40;101982.41;;;10.79;88.75
68594;BME280;55563;52.416;13.548;2023-04-19T08:19:42;101984.22;;;10.90;85.30
68594;BME280;55563;52.416;13.548;2023-04-19T08:21:43;101981.16;;;10.93;82.84
68594;BME280;55563;52.416;13.548;2023-04-19T08:23:43;101988.03;;;10.53;84.46
68594;BME280;55563;52.416;13.548;2023-04-19T08:25:44;101982.31;;;10.44;84.13
68594;BME280;55563;52.416;13.548;2023-04-19T08:27:45;102003.66;;;10.77;81.49
68594;BME280;55563;52.416;13.548;2023-04-19T08:29:46;101986.59;;;10.68;86.13
68594;BME280;55563;52.416;13.548;2023-04-19T08:31:46;101999.34;;;10.53;85.49
68594;BME280;55563;52.416;13.548;2023-04-19T08:33:47;101975.38;;;10.61;88.54
68594;BME280;55563;52.416;13.548;2023-04-19T08:35:48;101976.75;;;10.75;87.20
68594;BME280;55563;52.416;13.548;2023-04-19T08:37:48;101973.44;;;10.68;87.33
68594;BME280;55563;52.416;13.548;2023-04-19T08:39:49;101967.06;;;10.87;85.54
68594;BME280;55563;52.416;13.548;2023-04-19T08:41:50;101963.03;;;10.62;87.57
68594;BME280;55563;52.416;13.548;2023-04-19T08:43:52;101972.56;;;10.86;82.94
68594;BME280;55563;52.416;13.548;2023-04-19T08:45:54;101965.97;;;11.82;80.21
68594;BME280;55563;52.416;13.548;2023-04-19T08:47:56;101959.97;;;11.34;81.11
68594;BME280;55563;52.416;13.548;2023-04-19T08:49:59;101954.72;;;11.46;84.95
68594;BME280;55563;52.416;13.548;2023-04-19T08:52:02;101959.94;;;11.69;86.08
68594;BME280;55563;52.416;13.548;2023-04-19T08:54:05;101954.63;;;11.93;84.67
68594;BME280;55563;52.416;13.548;2023-04-19T08:56:07;101950.28;;;11.87;77.59
68594;BME280;55563;52.416;13.548;2023-04-19T08:58:07;101947.97;;;11.90;80.27
68594;BME280;55563;52.416;13.548;2023-04-19T09:00:08;101944.06;;;11.41;76.18
68594;BME280;55563;52.416;13.548;2023-04-19T09:02:10;101940.09;;;11.27;75.15
68594;BME280;55563;52.416;13.548;2023-04-19T09:04:11;101941.28;;;11.59;73.89
68594;BME280;55563;52.416;13.548;2023-04-19T09:06:12;101942.63;;;11.62;75.58
68594;BME280;55563;52.416;13.548;2023-04-19T09:08:29;101932.75;;;11.29;80.54
68594;BME280;55563;52.416;13.548;2023-04-19T09:10:30;101937.53;;;11.32;80.42
68594;BME280;55563;52.416;13.548;2023-04-19T09:12:31;101942.56;;;10.75;79.71
68594;BME280;55563;52.416;13.548;2023-04-19T09:14:32;101933.91;;;10.86;82.33
68594;BME280;55563;52.416;13.548;2023-04-19T09:16:34;101927.81;;;11.44;76.11
68594;BME280;55563;52.416;13.548;2023-04-19T09:18:52;101937.06;;;11.58;75.35
68594;BME280;55563;52.416;13.548;2023-04-19T09:20:54;101926.25;;;11.83;77.58
68594;BME280;55563;52.416;13.548;2023-04-19T09:23:06;101919.38;;;11.07;76.79
68594;BME280;55563;52.416;13.548;2023-04-19T09:25:08;101932.84;;;11.46;75.81
68594;BME280;55563;52.416;13.548;2023-04-19T09:27:08;101917.38;;;11.49;75.37
68594;BME280;55563;52.416;13.548;2023-04-19T09:29:15;101909.56;;;10.91;81.44
68594;BME280;55563;52.416;13.548;2023-04-19T09:31:16;101927.97;;;10.91;79.63
68594;BME280;55563;52.416;13.548;2023-04-19T09:33:29;101897.28;;;11.20;80.67
68594;BME280;55563;52.416;13.548;2023-04-19T09:35:46;101906.91;;;11.26;77.09
68594;BME280;55563;52.416;13.548;2023-04-19T09:38:04;101918.09;;;11.33;74.99
68594;BME280;55563;52.416;13.548;2023-04-19T09:40:22;101911.72;;;11.06;78.99
68594;BME280;55563;52.416;13.548;2023-04-19T09:42:23;101909.19;;;10.99;76.76
68594;BME280;55563;52.416;13.548;2023-04-19T09:44:58;101899.84;;;10.91;78.59
68594;BME280;55563;52.416;13.548;2023-04-19T09:46:59;101905.63;;;11.28;81.08
68594;BME280;55563;52.416;13.548;2023-04-19T09:49:16;101898.41;;;11.87;77.01
68594;BME280;55563;52.416;13.548;2023-04-19T09:51:17;101887.00;;;11.70;77.84
68594;BME280;55563;52.416;13.548;2023-04-19T09:53:19;101898.19;;;11.77;81.68
68594;BME280;55563;52.416;13.548;2023-04-19T09:55:21;101891.44;;;11.41;81.60
68594;BME280;55563;52.416;13.548;2023-04-19T09:57:22;101897.63;;;11.23;83.37
68594;BME280;55563;52.416;13.548;2023-04-19T09:59:22;101889.03;;;11.28;79.25
68594;BME280;55563;52.416;13.548;2023-04-19T10:01:24;101898.25;;;11.54;78.86
68594;BME280;55563;52.416;13.548;2023-04-19T10:03:28;101896.78;;;11.86;77.55
68594;BME280;55563;52.416;13.548;2023-04-19T10:05:30;101896.53;;;12.33;76.69
68594;BME280;55563;52.416;13.548;2023-04-19T10:07:31;101885.50;;;12.02;75.18
68594;BME280;55563;52.416;13.548;2023-04-19T10:09:34;101905.75;;;12.30;74.89
68594;BME280;55563;52.416;13.548;2023-04-19T10:11:36;101884.66;;;12.30;80.13
68594;BME280;55563;52.416;13.548;2023-04-19T10:13:38;101884.28;;;11.93;77.11
68594;BME280;55563;52.416;13.548;2023-04-19T10:15:41;101880.09;;;12.26;75.35
68594;BME280;55563;52.416;13.548;2023-04-19T10:17:43;101875.84;;;12.24;74.87
68594;BME280;55563;52.416;13.548;2023-04-19T10:19:44;101881.28;;;11.73;74.46
68594;BME280;55563;52.416;13.548;2023-04-19T10:21:47;101875.81;;;11.51;76.41
68594;BME280;55563;52.416;13.548;2023-04-19T10:23:49;101875.06;;;11.79;76.60
68594;BME280;55563;52.416;13.548;2023-04-19T10:25:55;101875.63;;;11.81;77.17
68594;BME280;55563;52.416;13.548;2023-04-19T10:27:57;101869.78;;;12.07;75.12
68594;BME280;55563;52.416;13.548;2023-04-19T10:30:01;101867.31;;;12.17;72.95
68594;BME280;55563;52.416;13.548;2023-04-19T10:32:12;101853.22;;;12.79;76.04